Time;durP1;ratioP1;P1;durP2;ratioP2;P2;SDS_P1;SDS_P2;PMS_P1;PMS_P2;Temp;Humidity;BMP_temperature;BMP_pressure;BME280_temperature;BME280_humidity;BME280_pressure;Samples;Min_cycle;Max_cycle;Signal;HPM_P1;HPM_P2
2022/10/29 00:00:43;;;;;;;;;20.33;16.33;;;;;20.22;67.27;101508.72;5026070;28;45209;-67
2022/10/29 00:03:08;;;;;;;;;15.67;14.67;;;;;20.20;66.90;101505.13;5027659;28;45917;-66
2022/10/29 00:05:34;;;;;;;;;17.00;14.33;;;;;20.26;66.52;101501.50;5026202;28;45173;-65
2022/10/29 00:08:00;;;;;;;;;17.00;14.33;;;;;20.22;66.68;101491.56;5017913;28;45154;-68
2022/10/29 00:10:28;;;;;;;;;17.67;17.00;;;;;20.25;66.82;101494.25;5033552;28;45076;-66
2022/10/29 00:12:54;;;;;;;;;14.00;11.67;;;;;20.23;66.58;101491.56;5030243;28;45240;-68
2022/10/29 00:15:20;;;;;;;;;26.67;23.67;;;;;20.24;66.29;101482.53;5028789;28;45041;-66
2022/10/29 00:17:46;;;;;;;;;18.33;14.00;;;;;20.27;66.04;101480.69;5022791;28;45146;-67
2022/10/29 00:20:11;;;;;;;;;14.00;14.00;;;;;20.22;66.26;101464.41;5026579;28;44871;-66
2022/10/29 00:22:37;;;;;;;;;19.67;13.67;;;;;20.24;66.17;101463.53;5029654;28;45517;-66
2022/10/29 00:25:03;;;;;;;;;16.67;13.33;;;;;20.31;65.92;101456.28;5036160;28;44954;-68
2022/10/29 00:27:28;;;;;;;;;14.00;11.50;;;;;20.35;65.89;101459.88;5024069;28;45297;-68
2022/10/29 00:29:54;;;;;;;;;11.67;11.33;;;;;20.37;65.77;101466.19;5032744;28;45096;-68
2022/10/29 00:32:20;;;;;;;;;15.33;14.33;;;;;20.35;65.51;101449.91;5022585;28;45888;-67
2022/10/29 00:34:45;;;;;;;;;16.33;11.33;;;;;20.34;65.34;101452.63;5032553;28;45032;-65
2022/10/29 00:37:10;;;;;;;;;17.33;12.00;;;;;20.35;65.77;101455.34;5028879;28;45188;-68
2022/10/29 00:39:35;;;;;;;;;12.67;12.67;;;;;20.36;65.43;101465.31;5037997;28;45066;-66
2022/10/29 00:42:03;;;;;;;;;17.33;12.00;;;;;20.30;65.17;101443.59;5023363;28;59229;-66
2022/10/29 00:44:37;;;;;;;;;10.67;10.67;;;;;20.29;65.43;101430.91;5033951;28;45122;-68
2022/10/29 00:47:17;;;;;;;;;18.67;12.67;;;;;20.30;65.34;101440.88;5038898;28;45068;-66
2022/10/29 00:49:47;;;;;;;;;12.00;9.67;;;;;20.24;65.04;101441.81;5031401;28;45264;-65
2022/10/29 00:52:15;;;;;;;;;16.67;12.67;;;;;20.18;65.56;101436.41;5028359;28;45481;-66
2022/10/29 00:54:44;;;;;;;;;14.00;11.67;;;;;20.21;65.37;101420.13;5024626;28;45163;-68
2022/10/29 00:57:16;;;;;;;;;12.67;11.33;;;;;20.25;65.63;101423.72;5020802;28;45100;-69
2022/10/29 00:59:52;;;;;;;;;11.00;11.00;;;;;20.15;65.33;101403.84;5021384;28;45440;-68
2022/10/29 01:02:18;;;;;;;;;14.33;13.00;;;;;20.03;65.55;101380.38;5017084;28;45261;-69
2022/10/29 01:04:44;;;;;;;;;8.00;8.00;;;;;20.23;65.33;101421.00;5022579;28;45021;-66
2022/10/29 01:07:13;;;;;;;;;14.00;12.00;;;;;20.13;65.58;101397.53;5016789;28;44960;-69
2022/10/29 01:09:39;;;;;;;;;12.00;11.33;;;;;20.24;65.58;101400.19;5030394;28;44888;-68
2022/10/29 01:12:17;;;;;;;;;15.00;12.67;;;;;20.28;65.47;101407.44;5031616;28;45551;-67
2022/10/29 01:14:48;;;;;;;;;13.67;10.67;;;;;20.26;65.46;101411.97;5027012;28;44988;-68
2022/10/29 01:17:39;;;;;;;;;18.33;10.67;;;;;20.28;65.13;101402.00;5032570;28;45065;-67
2022/10/29 01:20:26;;;;;;;;;10.33;10.33;;;;;20.27;65.30;101386.63;5035131;28;45019;-68
2022/10/29 01:23:10;;;;;;;;;13.67;12.00;;;;;20.29;64.90;101386.63;5023155;28;45945;-66
2022/10/29 01:26:00;;;;;;;;;17.00;14.00;;;;;20.18;65.21;101376.72;5021184;28;45294;-65
2022/10/29 01:29:03;;;;;;;;;12.67;12.33;;;;;20.28;65.13;101393.84;5018437;28;45462;-65
2022/10/29 01:31:56;;;;;;;;;15.00;14.00;;;;;20.27;64.95;101389.31;5016159;28;45508;-67
2022/10/29 01:34:37;;;;;;;;;14.00;11.33;;;;;20.27;64.55;101392.03;5031590;28;46721;-68
2022/10/29 01:37:09;;;;;;;;;9.67;7.67;;;;;20.19;64.74;101391.16;5025682;28;45389;-66
2022/10/29 01:39:43;;;;;;;;;10.33;9.33;;;;;20.10;64.57;101383.06;5039499;28;45136;-68
2022/10/29 01:42:27;;;;;;;;;12.67;10.33;;;;;20.07;64.78;101374.00;5025629;28;45372;-67
2022/10/29 01:45:02;;;;;;;;;11.67;11.00;;;;;20.02;64.69;101369.53;5029860;28;45379;-67
2022/10/29 01:47:34;;;;;;;;;12.00;11.00;;;;;19.94;64.59;101369.53;5021737;28;45109;-67
2022/10/29 01:50:04;;;;;;;;;13.33;10.33;;;;;19.98;64.48;101367.69;5034639;28;45061;-66
2022/10/29 01:52:34;;;;;;;;;10.67;9.33;;;;;19.86;64.41;101334.31;5046786;28;45201;-67
2022/10/29 01:55:00;;;;;;;;;12.33;10.33;;;;;19.88;64.63;101323.44;5024540;28;45822;-67
2022/10/29 01:57:28;;;;;;;;;13.00;12.00;;;;;19.92;64.56;101327.06;5021725;28;45013;-67
2022/10/29 02:00:03;;;;;;;;;15.33;8.67;;;;;19.84;64.45;101322.53;5031920;28;45123;-64
2022/10/29 02:02:51;;;;;;;;;8.33;7.33;;;;;19.92;64.51;101344.22;5016091;28;45097;-66
2022/10/29 02:05:32;;;;;;;;;14.67;10.00;;;;;19.96;64.30;101340.59;5017154;28;45579;-64
2022/10/29 02:07:57;;;;;;;;;10.33;8.33;;;;;19.94;63.91;101326.13;5014059;28;45132;-67
2022/10/29 02:10:35;;;;;;;;;9.33;8.33;;;;;19.91;64.32;101311.69;5029325;28;44938;-65
2022/10/29 02:13:01;;;;;;;;;11.67;9.67;;;;;19.94;64.15;101318.00;5030722;28;45182;-67
2022/10/29 02:15:47;;;;;;;;;12.67;10.33;;;;;19.86;63.89;101282.78;5039571;28;47071;-68
2022/10/29 02:18:13;;;;;;;;;12.33;9.33;;;;;20.00;63.87;101298.09;5023678;28;45111;-64
2022/10/29 02:20:43;;;;;;;;;11.67;9.67;;;;;19.96;63.63;101294.47;5027031;28;45006;-68
2022/10/29 02:23:09;;;;;;;;;10.00;9.33;;;;;19.94;63.81;101299.00;5019926;28;45121;-65
2022/10/29 02:25:34;;;;;;;;;13.00;10.00;;;;;19.93;63.37;101302.66;5026389;28;45612;-67
2022/10/29 02:28:00;;;;;;;;;18.00;10.33;;;;;19.81;63.67;101291.81;5014559;28;44888;-67
2022/10/29 02:30:25;;;;;;;;;11.33;10.00;;;;;19.79;63.88;101294.53;5025407;28;45135;-65
2022/10/29 02:32:51;;;;;;;;;10.00;8.67;;;;;19.84;63.20;101294.53;5020407;28;45395;-66
2022/10/29 02:35:16;;;;;;;;;11.00;8.33;;;;;19.79;63.58;101290.94;5025760;28;45926;-64
2022/10/29 02:37:42;;;;;;;;;17.00;10.00;;;;;19.78;63.56;101289.13;5035901;28;45070;-65
2022/10/29 02:40:08;;;;;;;;;8.67;8.67;;;;;19.78;63.90;101290.06;5031465;28;45143;-65
2022/10/29 02:42:34;;;;;;;;;17.67;12.33;;;;;19.79;63.95;101285.53;5028935;28;45165;-69
2022/10/29 02:44:59;;;;;;;;;13.00;11.33;;;;;19.82;63.53;101277.38;5037226;28;45527;-66
2022/10/29 02:47:24;;;;;;;;;11.33;10.00;;;;;19.80;63.74;101271.03;5028075;28;44997;-66
2022/10/29 02:49:50;;;;;;;;;12.00;9.33;;;;;19.85;63.50;101282.78;5033394;28;45076;-64
2022/10/29 02:52:15;;;;;;;;;13.33;11.33;;;;;19.80;63.80;101268.31;5036352;28;45034;-66
2022/10/29 02:54:41;;;;;;;;;10.67;9.33;;;;;19.83;63.68;101280.09;5022127;28;45070;-66
2022/10/29 02:57:07;;;;;;;;;15.00;8.33;;;;;19.85;63.63;101282.78;5024590;28;45031;-67
2022/10/29 02:59:32;;;;;;;;;12.67;11.33;;;;;19.75;63.55;101259.28;5023096;28;45108;-66
2022/10/29 03:01:57;;;;;;;;;15.00;10.00;;;;;19.72;63.45;101270.16;5020731;28;45314;-67
2022/10/29 03:04:23;;;;;;;;;10.67;9.67;;;;;19.78;63.74;101279.19;5015051;28;45664;-65
2022/10/29 03:06:48;;;;;;;;;15.67;11.33;;;;;19.80;63.58;101255.69;5027824;28;50893;-64
2022/10/29 03:09:13;;;;;;;;;14.67;9.00;;;;;19.85;63.46;101258.38;5012765;28;44958;-67
2022/10/29 03:11:39;;;;;;;;;10.33;10.33;;;;;19.80;63.13;101250.25;5027731;28;45046;-67
2022/10/29 03:14:04;;;;;;;;;12.33;8.00;;;;;19.79;63.42;101245.75;5036965;28;47887;-67
2022/10/29 03:16:29;;;;;;;;;10.00;8.33;;;;;19.78;63.29;101252.09;5027976;28;45104;-65
2022/10/29 03:18:55;;;;;;;;;7.00;7.00;;;;;19.80;63.46;101258.41;5028892;28;45320;-65
2022/10/29 03:21:20;;;;;;;;;13.67;9.33;;;;;19.82;63.19;101258.41;5035109;28;45109;-65
2022/10/29 03:23:46;;;;;;;;;12.33;9.00;;;;;19.82;63.41;101255.69;5021864;28;45569;-66
2022/10/29 03:26:11;;;;;;;;;15.33;10.33;;;;;19.79;63.04;101267.44;5029250;28;45300;-66
2022/10/29 03:28:37;;;;;;;;;14.00;7.33;;;;;19.67;63.24;101249.38;5031974;28;45004;-66
2022/10/29 03:31:02;;;;;;;;;13.67;8.67;;;;;19.68;63.26;101256.59;5015125;28;45302;-66
2022/10/29 03:33:27;;;;;;;;;11.33;8.67;;;;;19.67;63.53;101253.91;5020181;28;45608;-66
2022/10/29 03:35:56;;;;;;;;;14.33;11.33;;;;;19.57;63.67;101269.28;5023253;28;45056;-67
2022/10/29 03:38:22;;;;;;;;;11.00;10.00;;;;;19.59;63.58;101262.03;5026404;28;45244;-68
2022/10/29 03:40:48;;;;;;;;;10.67;9.67;;;;;19.55;63.63;101249.41;5028943;28;45029;-66
2022/10/29 03:43:13;;;;;;;;;12.33;12.33;;;;;19.52;63.69;101258.44;5028266;28;45224;-66
2022/10/29 03:45:38;;;;;;;;;12.67;11.00;;;;;19.46;63.66;101253.03;5028965;28;45107;-67
2022/10/29 03:48:04;;;;;;;;;12.33;7.33;;;;;19.52;63.76;101266.56;5034580;28;45214;-67
2022/10/29 03:50:29;;;;;;;;;11.67;10.33;;;;;19.58;63.72;101253.91;5038859;28;45182;-68
2022/10/29 03:52:55;;;;;;;;;10.00;8.33;;;;;19.51;63.49;101263.88;5026262;28;45505;-66
2022/10/29 03:55:20;;;;;;;;;12.67;11.00;;;;;19.47;63.61;101265.69;5029642;28;46207;-66
2022/10/29 03:57:45;;;;;;;;;13.67;9.33;;;;;19.38;64.23;101259.38;5018592;28;58588;-67
2022/10/29 04:00:11;;;;;;;;;12.00;10.67;;;;;19.30;63.81;101230.50;5028525;28;45034;-66
2022/10/29 04:02:37;;;;;;;;;11.67;10.33;;;;;19.39;63.84;101237.69;5019137;28;45332;-69
2022/10/29 04:05:02;;;;;;;;;12.67;9.67;;;;;19.39;63.70;101220.56;5018011;28;45000;-64
2022/10/29 04:07:27;;;;;;;;;11.33;10.33;;;;;19.54;63.45;101241.28;5020035;28;45030;-67
2022/10/29 04:09:53;;;;;;;;;11.67;9.67;;;;;19.54;63.21;101253.03;5020050;28;45857;-66
2022/10/29 04:12:18;;;;;;;;;20.00;13.00;;;;;19.47;63.26;101238.59;5037403;28;54648;-66
2022/10/29 04:14:44;;;;;;;;;12.67;11.33;;;;;19.45;63.21;101253.03;5036700;28;45267;-67
2022/10/29 04:17:10;;;;;;;;;16.33;11.33;;;;;19.50;63.44;101270.19;5034234;28;45437;-68
2022/10/29 04:19:36;;;;;;;;;10.67;9.33;;;;;19.49;63.40;101263.88;5037798;28;45217;-66
2022/10/29 04:22:01;;;;;;;;;12.67;9.00;;;;;19.34;63.65;101244.94;5028597;28;51874;-65
2022/10/29 04:24:26;;;;;;;;;9.67;9.67;;;;;19.42;63.72;101263.88;5021781;28;45240;-67
2022/10/29 04:26:52;;;;;;;;;11.00;9.33;;;;;19.47;63.40;101275.63;5020551;28;45485;-67
2022/10/29 04:29:17;;;;;;;;;11.33;8.67;;;;;19.48;63.56;101275.59;5038750;28;45206;-67
2022/10/29 04:31:43;;;;;;;;;11.33;6.00;;;;;19.41;63.67;101253.97;5023682;28;45763;-67
2022/10/29 04:34:08;;;;;;;;;11.00;7.67;;;;;19.42;63.48;101242.19;5022592;28;45220;-66
2022/10/29 04:36:33;;;;;;;;;14.33;11.67;;;;;19.40;63.17;101239.53;5026595;28;45440;-67
2022/10/29 04:38:59;;;;;;;;;9.33;7.33;;;;;19.45;63.08;101244.91;5034028;28;45298;-65
2022/10/29 04:41:24;;;;;;;;;13.67;10.67;;;;;19.39;63.57;101231.38;5035517;28;45958;-65
2022/10/29 04:43:49;;;;;;;;;11.67;8.67;;;;;19.49;63.32;101235.88;5030006;28;45238;-66
2022/10/29 04:46:14;;;;;;;;;12.00;10.00;;;;;19.52;63.03;101233.16;5021033;28;45112;-67
2022/10/29 04:48:40;;;;;;;;;11.33;7.33;;;;;19.02;62.88;101175.44;5038475;28;44975;-65
2022/10/29 04:51:05;;;;;;;;;13.33;11.00;;;;;19.46;63.27;101241.28;5039553;28;46074;-67
2022/10/29 04:53:30;;;;;;;;;13.00;9.00;;;;;19.34;63.33;101213.31;5034553;28;45084;-65
2022/10/29 04:56:01;;;;;;;;;8.67;7.67;;;;;19.47;63.06;101230.47;5030436;28;55497;-64
2022/10/29 04:58:26;;;;;;;;;11.67;10.33;;;;;19.42;62.73;101223.22;5029233;28;45128;-66
2022/10/29 05:00:52;;;;;;;;;13.33;9.33;;;;;19.42;63.12;101221.44;5022471;28;45256;-65
2022/10/29 05:03:17;;;;;;;;;10.67;10.00;;;;;19.40;63.09;101225.97;5023098;28;45083;-66
2022/10/29 05:05:44;;;;;;;;;11.33;10.33;;;;;19.37;62.95;101228.69;5015924;28;45202;-65
2022/10/29 05:08:10;;;;;;;;;12.67;10.00;;;;;19.33;63.18;101216.03;5033118;28;45159;-64
2022/10/29 05:10:37;;;;;;;;;10.33;10.00;;;;;19.37;63.37;101217.84;5041368;28;45999;-65
2022/10/29 05:13:06;;;;;;;;;6.33;6.33;;;;;19.39;63.06;101218.72;5025619;28;45100;-65
2022/10/29 05:15:32;;;;;;;;;10.33;10.33;;;;;19.34;63.05;101226.88;5035302;28;45171;-65
2022/10/29 05:17:58;;;;;;;;;13.33;8.33;;;;;19.37;63.22;101216.91;5027942;28;45243;-65
2022/10/29 05:20:24;;;;;;;;;12.33;10.67;;;;;19.41;63.05;101227.75;5036066;28;45238;-65
2022/10/29 05:22:56;;;;;;;;;10.00;9.50;;;;;19.34;63.06;101217.84;5022756;28;45184;-64
2022/10/29 05:25:22;;;;;;;;;13.00;11.33;;;;;19.34;62.98;101210.59;5024371;28;45036;-66
2022/10/29 05:27:47;;;;;;;;;13.00;10.33;;;;;19.39;63.14;101223.25;5025602;28;45227;-67
2022/10/29 05:30:13;;;;;;;;;15.00;11.67;;;;;19.41;63.08;101222.34;5017453;28;45284;-64
2022/10/29 05:32:38;;;;;;;;;14.33;12.33;;;;;19.33;63.29;101206.09;5025992;28;45351;-62
2022/10/29 05:35:04;;;;;;;;;13.67;12.00;;;;;19.37;63.16;101207.00;5014691;28;45065;-62
2022/10/29 05:37:29;;;;;;;;;15.00;10.67;;;;;19.22;63.27;101175.44;5020769;28;45205;-63
2022/10/29 05:39:54;;;;;;;;;12.00;11.00;;;;;19.17;63.12;101166.38;5033826;28;45198;-62
2022/10/29 05:42:20;;;;;;;;;9.33;9.33;;;;;19.36;63.25;101191.63;5031352;28;45142;-63
2022/10/29 05:44:45;;;;;;;;;15.00;12.00;;;;;19.32;63.07;101174.50;5031958;28;45188;-62
2022/10/29 05:47:10;;;;;;;;;11.00;10.33;;;;;19.40;63.09;101176.28;5022312;28;45377;-62
2022/10/29 05:49:36;;;;;;;;;17.33;11.67;;;;;19.44;63.09;101181.69;5028126;28;50316;-63
2022/10/29 05:52:01;;;;;;;;;15.67;11.00;;;;;19.42;62.89;101178.09;5033329;28;47934;-63
2022/10/29 05:54:26;;;;;;;;;13.33;10.33;;;;;19.38;62.80;101172.66;5034426;28;45201;-63
2022/10/29 05:56:52;;;;;;;;;15.33;11.33;;;;;19.45;62.71;101186.22;5029333;28;45009;-63
2022/10/29 05:59:17;;;;;;;;;12.67;8.00;;;;;19.42;62.57;101171.75;5019109;28;45503;-63
2022/10/29 06:01:42;;;;;;;;;11.67;10.67;;;;;19.52;62.35;101178.97;5023604;28;45372;-64
2022/10/29 06:04:08;;;;;;;;;14.00;10.00;;;;;19.54;62.43;101189.78;5027612;28;45220;-63
2022/10/29 06:06:33;;;;;;;;;14.33;11.33;;;;;19.52;62.21;101176.25;5021811;28;45308;-63
2022/10/29 06:08:59;;;;;;;;;13.67;9.33;;;;;19.51;62.38;101177.13;5027058;28;59410;-63
2022/10/29 06:11:24;;;;;;;;;13.67;8.00;;;;;19.55;62.12;101169.91;5014857;28;45148;-63
2022/10/29 06:13:53;;;;;;;;;16.00;10.00;;;;;19.49;62.06;101160.88;5035179;28;45159;-64
2022/10/29 06:16:19;;;;;;;;;17.67;15.33;;;;;19.49;62.31;101149.16;5026168;28;45151;-63
2022/10/29 06:18:44;;;;;;;;;11.67;8.33;;;;;19.55;61.74;101165.41;5031035;28;45536;-64
2022/10/29 06:21:09;;;;;;;;;12.00;10.33;;;;;19.57;61.86;101166.28;5030742;28;45028;-63
2022/10/29 06:23:35;;;;;;;;;46.25;36.00;;;;;19.47;61.89;101145.56;5036294;28;45105;-63
2022/10/29 06:26:00;;;;;;;;;14.67;14.00;;;;;19.51;61.75;101150.94;5023624;28;45277;-64
2022/10/29 06:28:26;;;;;;;;;23.33;21.00;;;;;19.60;61.85;101160.84;5017795;28;45375;-63
2022/10/29 06:30:52;;;;;;;;;11.33;11.00;;;;;19.62;61.74;101169.88;5019917;28;44951;-66
2022/10/29 06:33:18;;;;;;;;;16.67;10.33;;;;;19.42;61.22;101151.00;5027691;28;45199;-63
2022/10/29 06:35:44;;;;;;;;;18.33;15.00;;;;;19.56;61.33;101178.03;5023192;28;45173;-64
2022/10/29 06:38:09;;;;;;;;;14.00;10.67;;;;;19.56;61.31;101191.56;5025639;28;45460;-62
2022/10/29 06:40:35;;;;;;;;;12.67;10.67;;;;;19.42;61.49;101177.16;5020915;28;45680;-63
2022/10/29 06:43:03;;;;;;;;;18.00;10.67;;;;;19.54;61.27;101206.94;5038850;28;45104;-62
2022/10/29 06:45:30;;;;;;;;;10.00;8.67;;;;;19.53;61.09;101188.88;5024721;28;45169;-63
2022/10/29 06:47:55;;;;;;;;;15.67;11.67;;;;;19.34;61.57;101155.53;5013239;28;47934;-64
2022/10/29 06:50:21;;;;;;;;;18.00;14.67;;;;;19.50;61.49;101186.16;5035731;28;45164;-64
2022/10/29 06:53:06;;;;;;;;;12.00;11.00;;;;;19.53;61.28;101205.13;5023526;28;45185;-64
2022/10/29 06:55:32;;;;;;;;;12.67;9.00;;;;;19.51;61.25;101190.69;5025383;28;45031;-64
2022/10/29 06:58:15;;;;;;;;;13.00;13.00;;;;;19.45;61.47;101190.69;5029299;28;45477;-64
2022/10/29 07:00:41;;;;;;;;;13.33;12.67;;;;;19.56;61.85;101205.13;5023225;28;44889;-64
2022/10/29 07:03:10;;;;;;;;;11.00;11.00;;;;;19.48;61.56;101191.59;5023322;28;45039;-63
2022/10/29 07:05:36;;;;;;;;;12.67;10.67;;;;;19.56;61.64;101212.38;5019841;28;45025;-64
2022/10/29 07:08:01;;;;;;;;;16.67;10.00;;;;;19.23;61.80;101138.41;5015074;28;45979;-63
2022/10/29 07:10:29;;;;;;;;;11.00;9.67;;;;;19.52;61.60;101184.38;5013526;28;51277;-63
2022/10/29 07:12:55;;;;;;;;;11.67;10.00;;;;;19.53;61.53;101172.59;5033664;28;45034;-63
2022/10/29 07:15:21;;;;;;;;;16.00;12.33;;;;;19.55;61.94;101169.91;5031725;28;45349;-64
2022/10/29 07:18:03;;;;;;;;;12.67;12.00;;;;;19.58;61.66;101187.03;5028097;28;45355;-63
2022/10/29 07:20:31;;;;;;;;;11.33;10.67;;;;;19.63;61.32;101185.25;5030435;28;44941;-63
2022/10/29 07:22:59;;;;;;;;;12.00;11.00;;;;;19.63;61.65;101177.09;5020157;28;45132;-63
2022/10/29 07:25:24;;;;;;;;;12.67;12.67;;;;;19.55;61.39;101175.31;5022312;28;45054;-65
2022/10/29 07:27:50;;;;;;;;;14.67;10.33;;;;;19.57;61.16;101170.78;5018069;28;45459;-64
2022/10/29 07:30:16;;;;;;;;;15.67;10.67;;;;;19.64;61.05;101176.19;5016482;28;45115;-63
2022/10/29 07:32:41;;;;;;;;;15.33;10.33;;;;;19.57;61.04;101163.56;5017619;28;45165;-64
2022/10/29 07:35:07;;;;;;;;;18.00;14.67;;;;;19.66;61.17;101168.94;5013373;28;45147;-63
2022/10/29 07:37:33;;;;;;;;;13.67;9.67;;;;;19.54;60.46;101150.03;5016185;28;45819;-63
2022/10/29 07:39:58;;;;;;;;;13.67;10.00;;;;;19.36;60.59;101133.84;5033408;28;45002;-66
2022/10/29 07:42:24;;;;;;;;;13.00;10.33;;;;;19.48;60.54;101161.78;5027468;28;45621;-64
2022/10/29 07:44:49;;;;;;;;;0.67;0.67;;;;;19.53;60.58;101161.75;5034289;28;45220;-64
2022/10/29 07:47:14;;;;;;;;;11.67;11.67;;;;;19.58;60.82;101167.16;5013329;28;46447;-64
2022/10/29 07:49:40;;;;;;;;;20.00;9.00;;;;;19.61;60.63;101159.94;5029548;28;45069;-65
2022/10/29 07:52:05;;;;;;;;;15.67;11.00;;;;;19.48;60.26;101136.50;5032933;28;45193;-63
2022/10/29 07:54:30;;;;;;;;;14.00;10.33;;;;;19.60;60.55;101162.63;5023052;28;45267;-65
2022/10/29 07:56:56;;;;;;;;;18.67;11.00;;;;;19.59;60.63;101164.47;5034313;28;45492;-64
2022/10/29 07:59:21;;;;;;;;;19.67;11.33;;;;;19.61;60.39;101165.34;5020202;28;44980;-65
2022/10/29 08:01:46;;;;;;;;;11.67;9.33;;;;;19.67;60.16;101178.00;5024424;28;44963;-65
2022/10/29 08:04:13;;;;;;;;;9.67;9.00;;;;;19.63;60.07;101165.34;5010331;28;45334;-64
2022/10/29 08:06:39;;;;;;;;;10.00;9.00;;;;;19.65;60.19;101190.63;5022645;28;45489;-63
2022/10/29 08:09:05;;;;;;;;;15.67;9.33;;;;;19.51;60.03;101167.19;5027176;28;45087;-64
2022/10/29 08:11:31;;;;;;;;;17.00;13.33;;;;;19.63;59.68;101190.66;5013094;28;45061;-65
2022/10/29 08:13:56;;;;;;;;;12.67;10.00;;;;;19.69;60.28;101196.03;5029215;28;45210;-65
2022/10/29 08:16:22;;;;;;;;;16.67;13.00;;;;;19.55;59.99;101192.50;5024874;28;45888;-63
2022/10/29 08:18:47;;;;;;;;;13.67;9.67;;;;;19.74;60.05;101206.88;5029486;28;45573;-64
2022/10/29 08:21:13;;;;;;;;;18.67;12.33;;;;;19.76;60.05;101204.19;5028312;28;45239;-68
2022/10/29 08:23:38;;;;;;;;;14.33;8.67;;;;;19.84;59.57;101202.34;5019231;28;44998;-66
2022/10/29 08:26:03;;;;;;;;;13.67;11.67;;;;;19.82;59.54;101196.94;5034554;28;52712;-64
2022/10/29 08:28:29;;;;;;;;;11.33;10.00;;;;;19.77;59.45;101184.31;5035307;28;44931;-66
2022/10/29 08:30:54;;;;;;;;;13.33;11.33;;;;;19.91;59.26;101205.94;5020429;28;44975;-66
2022/10/29 08:33:20;;;;;;;;;11.67;10.33;;;;;19.79;59.06;101207.78;5015685;28;44908;-65
2022/10/29 08:35:46;;;;;;;;;11.67;11.00;;;;;19.91;59.51;101200.50;5023308;28;45265;-66
2022/10/29 08:38:11;;;;;;;;;12.67;10.67;;;;;19.77;59.12;101165.34;5021783;28;45095;-65
2022/10/29 08:40:57;;;;;;;;;13.00;10.67;;;;;19.98;58.68;101202.25;5025767;28;51776;-64
2022/10/29 08:44:00;;;;;;;;;15.67;11.00;;;;;20.02;58.66;101198.63;5038942;28;44972;-65
2022/10/29 08:46:41;;;;;;;;;17.67;13.00;;;;;20.06;58.66;101205.84;5019820;28;45704;-64
2022/10/29 08:49:40;;;;;;;;;11.33;10.33;;;;;20.11;58.32;101197.69;5020208;28;45163;-65
2022/10/29 08:52:10;;;;;;;;;11.67;11.67;;;;;20.13;58.38;101198.56;5019797;28;45270;-64
2022/10/29 08:54:40;;;;;;;;;13.00;10.00;;;;;20.13;58.03;101195.84;5025903;28;45093;-65
2022/10/29 08:57:13;;;;;;;;;12.33;10.67;;;;;20.16;58.19;101190.41;5037714;28;45752;-65
2022/10/29 09:00:02;;;;;;;;;18.33;12.33;;;;;19.97;57.93;101129.97;5023520;28;45026;-65
2022/10/29 09:02:29;;;;;;;;;18.67;13.00;;;;;20.29;57.73;101180.38;5032341;28;45140;-66
2022/10/29 09:04:54;;;;;;;;;15.67;12.00;;;;;20.39;57.43;101184.81;5022497;28;45213;-67
2022/10/29 09:07:35;;;;;;;;;18.67;12.33;;;;;20.45;57.18;101182.06;5017873;28;47664;-65
2022/10/29 09:10:11;;;;;;;;;17.33;12.33;;;;;20.47;57.12;101176.63;5029008;28;45135;-64
2022/10/29 09:13:07;;;;;;;;;23.33;12.33;;;;;20.53;56.87;101193.78;5019666;28;45058;-65
2022/10/29 09:15:53;;;;;;;;;14.67;13.00;;;;;20.56;57.21;101203.72;5023894;28;44983;-66
2022/10/29 09:18:29;;;;;;;;;15.33;13.67;;;;;20.63;56.89;101202.78;5025595;28;46796;-65
2022/10/29 09:21:25;;;;;;;;;12.67;12.67;;;;;20.66;56.58;101207.31;5028059;28;45200;-66
2022/10/29 09:24:00;;;;;;;;;22.67;20.33;;;;;20.66;56.39;101208.19;5029705;28;45130;-67
2022/10/29 09:26:32;;;;;;;;;12.33;12.33;;;;;20.64;56.39;101193.75;5025751;28;45141;-66
2022/10/29 09:29:14;;;;;;;;;25.33;19.67;;;;;20.73;56.38;101188.22;5026851;28;45837;-66
2022/10/29 09:31:44;;;;;;;;;12.67;11.00;;;;;20.65;56.12;101176.53;5021211;28;44962;-67
2022/10/29 09:34:41;;;;;;;;;14.67;12.00;;;;;20.77;55.93;101192.72;5022020;28;45176;-66
2022/10/29 09:37:33;;;;;;;;;14.67;13.33;;;;;20.79;55.98;101179.13;5015517;28;45018;-65
2022/10/29 09:40:03;;;;;;;;;20.00;15.00;;;;;20.84;55.49;101181.78;5015873;28;45352;-65
2022/10/29 09:42:34;;;;;;;;;14.33;13.33;;;;;20.86;55.71;101183.59;5034523;28;44986;-67
2022/10/29 09:45:09;;;;;;;;;20.33;14.00;;;;;20.91;55.82;101172.69;5023269;28;44910;-65
2022/10/29 09:48:03;;;;;;;;;16.33;10.67;;;;;21.03;55.08;101186.13;5015726;28;45190;-65
2022/10/29 09:50:54;;;;;;;;;16.33;10.33;;;;;21.04;55.08;101173.47;5027645;28;45373;-65
2022/10/29 09:53:20;;;;;;;;;10.33;10.00;;;;;21.14;54.90;101184.22;5034971;28;45109;-65
2022/10/29 09:55:53;;;;;;;;;17.00;12.67;;;;;21.23;54.50;101179.59;5027084;28;45514;-66
2022/10/29 09:58:23;;;;;;;;;13.67;13.67;;;;;21.14;55.28;101150.72;5029435;28;45262;-62
2022/10/29 10:00:49;;;;;;;;;12.33;12.33;;;;;21.23;54.20;101158.75;5030875;28;45795;-62
2022/10/29 10:03:46;;;;;;;;;8.00;6.33;;;;;21.35;54.19;101174.03;5024446;28;45129;-61
2022/10/29 10:06:15;;;;;;;;;12.67;11.00;;;;;21.28;53.39;101153.25;5023648;28;45070;-59
2022/10/29 10:09:01;;;;;;;;;13.00;10.00;;;;;21.37;53.44;101168.59;5028167;28;45043;-61
2022/10/29 10:11:35;;;;;;;;;15.33;9.00;;;;;21.43;53.38;101176.66;5028034;28;46475;-59
2022/10/29 10:14:08;;;;;;;;;12.67;9.00;;;;;21.46;53.57;101174.78;5015483;28;45210;-64
2022/10/29 10:16:33;;;;;;;;;12.33;9.00;;;;;21.49;52.93;101166.63;5030521;28;45196;-61
2022/10/29 10:18:59;;;;;;;;;15.00;11.00;;;;;21.60;52.95;101180.09;5036279;28;44977;-62
2022/10/29 10:21:31;;;;;;;;;13.67;11.67;;;;;21.67;53.30;101176.38;5018803;28;45046;-62
2022/10/29 10:23:58;;;;;;;;;15.00;11.00;;;;;21.68;52.92;101166.44;5030870;28;44970;-62
2022/10/29 10:26:29;;;;;;;;;16.00;12.00;;;;;21.71;52.13;101174.50;5029808;28;45130;-64
2022/10/29 10:29:18;;;;;;;;;14.00;12.00;;;;;21.74;51.59;101177.19;5026256;28;45014;-62
2022/10/29 10:32:08;;;;;;;;;13.67;9.00;;;;;21.75;51.75;101173.56;5029659;28;46199;-62
2022/10/29 10:34:33;;;;;;;;;13.33;11.33;;;;;21.81;51.94;101162.63;5020722;28;45227;-61
2022/10/29 10:37:20;;;;;;;;;15.33;12.33;;;;;21.88;52.23;101171.59;5018318;28;45485;-62
2022/10/29 10:39:56;;;;;;;;;12.00;10.67;;;;;21.92;51.25;101169.72;5043775;28;45332;-61
2022/10/29 10:42:26;;;;;;;;;13.00;10.33;;;;;21.94;51.57;101163.31;5036058;28;45951;-63
2022/10/29 10:44:57;;;;;;;;;18.67;13.33;;;;;22.00;51.02;101170.53;5029912;28;45469;-62
2022/10/29 10:47:26;;;;;;;;;12.00;11.33;;;;;22.00;50.57;101143.31;5026164;28;45286;-63
2022/10/29 10:50:23;;;;;;;;;14.67;11.67;;;;;22.13;51.05;101147.66;5019094;28;45736;-61
2022/10/29 10:52:50;;;;;;;;;12.33;11.00;;;;;22.25;51.08;101149.28;5024792;28;45770;-62
2022/10/29 10:55:33;;;;;;;;;13.67;12.00;;;;;22.21;50.64;101123.94;5026287;28;45079;-62
2022/10/29 10:58:11;;;;;;;;;13.33;10.00;;;;;22.41;50.32;101133.63;5021580;28;45088;-67
2022/10/29 11:00:42;;;;;;;;;12.33;10.00;;;;;22.48;49.42;101127.16;5025777;28;45152;-66
2022/10/29 11:03:08;;;;;;;;;16.00;12.00;;;;;22.52;49.46;101118.03;5027867;28;46248;-66
2022/10/29 11:06:03;;;;;;;;;23.00;15.33;;;;;22.57;49.63;101123.38;5024017;28;44951;-64
2022/10/29 11:09:12;;;;;;;;;17.33;14.00;;;;;22.57;49.67;101107.03;5016934;28;45306;-67
2022/10/29 11:11:57;;;;;;;;;13.67;13.00;;;;;22.48;49.69;101091.75;5023752;28;45180;-67
2022/10/29 11:14:41;;;;;;;;;16.33;11.33;;;;;22.59;49.60;101110.66;5028624;28;47045;-65
2022/10/29 11:17:26;;;;;;;;;13.33;11.33;;;;;22.54;49.24;101110.72;5033445;28;45076;-66
2022/10/29 11:19:59;;;;;;;;;12.67;11.67;;;;;22.53;48.99;101111.63;5024153;28;45183;-62
2022/10/29 11:22:36;;;;;;;;;15.33;11.67;;;;;22.62;49.04;101130.53;5032978;28;45295;-62
2022/10/29 11:25:15;;;;;;;;;14.00;12.00;;;;;22.60;49.23;101107.91;5020995;28;45121;-64